Time;durP1;ratioP1;P1;durP2;ratioP2;P2;SDS_P1;SDS_P2;PMS_P1;PMS_P2;Temp;Humidity;BMP_temperature;BMP_pressure;BME280_temperature;BME280_humidity;BME280_pressure;Samples;Min_cycle;Max_cycle;Signal;HPM_P1;HPM_P2
2022/09/25 00:00:36;;;;;;;7.47;5.00;;;;;;;;;;5070049;28;20445;-74
2022/09/25 00:03:04;;;;;;;7.87;6.03;;;;;;;;;;5070679;28;20453;-73
2022/09/25 00:05:32;;;;;;;7.60;6.10;;;;;;;;;;5074526;28;20472;-73
2022/09/25 00:07:59;;;;;;;8.60;5.37;;;;;;;;;;5074734;28;20529;-73
2022/09/25 00:10:28;;;;;;;7.30;5.30;;;;;;;;;;5073952;28;20484;-73
2022/09/25 00:12:55;;;;;;;6.77;5.60;;;;;;;;;;5062456;28;20449;-74
2022/09/25 00:15:23;;;;;;;8.50;6.47;;;;;;;;;;5074324;28;20890;-73
2022/09/25 00:17:50;;;;;;;9.57;5.60;;;;;;;;;;5074932;28;20803;-73
2022/09/25 00:20:19;;;;;;;7.20;5.60;;;;;;;;;;5074606;28;20449;-73
2022/09/25 00:22:46;;;;;;;6.93;5.57;;;;;;;;;;5075005;28;21000;-73
2022/09/25 00:25:14;;;;;;;5.90;5.23;;;;;;;;;;5075036;28;20879;-73
2022/09/25 00:27:42;;;;;;;8.53;6.13;;;;;;;;;;5074145;28;20551;-74
2022/09/25 00:30:10;;;;;;;7.53;5.17;;;;;;;;;;5073932;28;20495;-73
2022/09/25 00:32:37;;;;;;;7.40;5.10;;;;;;;;;;5073758;28;20804;-74
2022/09/25 00:35:04;;;;;;;7.97;5.67;;;;;;;;;;5074215;28;20822;-74
2022/09/25 00:37:35;;;;;;;7.67;5.63;;;;;;;;;;5073879;28;20781;-74
2022/09/25 00:40:02;;;;;;;9.33;5.50;;;;;;;;;;5073934;28;20461;-74
2022/09/25 00:42:29;;;;;;;6.43;5.70;;;;;;;;;;5073984;28;20465;-73
2022/09/25 00:45:00;;;;;;;8.20;5.67;;;;;;;;;;5074562;28;20441;-74
2022/09/25 00:47:48;;;;;;;6.87;5.83;;;;;;;;;;5073811;28;20442;-73
2022/09/25 00:50:19;;;;;;;7.53;6.30;;;;;;;;;;5069220;28;20491;-74
2022/09/25 00:52:48;;;;;;;9.37;5.10;;;;;;;;;;5074429;28;20438;-73
2022/09/25 00:55:16;;;;;;;8.97;6.53;;;;;;;;;;5073988;28;20949;-74
2022/09/25 00:57:45;;;;;;;7.63;5.73;;;;;;;;;;5074095;28;20476;-73
2022/09/25 01:00:13;;;;;;;9.10;5.43;;;;;;;;;;5073336;28;20979;-74
2022/09/25 01:02:43;;;;;;;5.80;4.73;;;;;;;;;;5072869;28;20449;-73
2022/09/25 01:05:13;;;;;;;6.33;4.83;;;;;;;;;;5074061;28;20484;-74
2022/09/25 01:07:42;;;;;;;9.40;6.37;;;;;;;;;;5073024;28;20511;-73
2022/09/25 01:10:11;;;;;;;7.00;5.40;;;;;;;;;;5073364;28;20494;-74
2022/09/25 01:12:40;;;;;;;8.20;5.97;;;;;;;;;;5073385;28;20863;-73
2022/09/25 01:15:08;;;;;;;8.00;5.57;;;;;;;;;;5072638;28;20776;-74
2022/09/25 01:17:38;;;;;;;6.40;4.83;;;;;;;;;;5073120;28;20873;-74
2022/09/25 01:20:13;;;;;;;8.27;5.50;;;;;;;;;;5073257;28;20467;-73
2022/09/25 01:22:46;;;;;;;6.90;5.30;;;;;;;;;;5073077;28;20448;-73
2022/09/25 01:25:23;;;;;;;7.50;5.97;;;;;;;;;;5073823;28;20552;-75
2022/09/25 01:28:02;;;;;;;10.20;6.90;;;;;;;;;;5073107;28;20477;-73
2022/09/25 01:30:35;;;;;;;8.87;5.40;;;;;;;;;;5073085;28;20479;-73
2022/09/25 01:33:04;;;;;;;9.07;6.40;;;;;;;;;;5073540;28;20449;-73
2022/09/25 01:35:38;;;;;;;8.03;6.40;;;;;;;;;;5073051;28;20446;-73
2022/09/25 01:38:09;;;;;;;8.60;5.83;;;;;;;;;;5072923;28;20469;-73
2022/09/25 01:40:40;;;;;;;8.83;6.33;;;;;;;;;;5072992;28;20469;-73
2022/09/25 01:43:10;;;;;;;8.50;6.10;;;;;;;;;;5073271;28;20537;-73
2022/09/25 01:45:40;;;;;;;8.63;5.60;;;;;;;;;;5072888;28;20465;-74
2022/09/25 01:48:08;;;;;;;11.13;6.80;;;;;;;;;;5072696;28;20546;-73
2022/09/25 01:50:37;;;;;;;13.00;7.60;;;;;;;;;;5072732;28;20485;-73
2022/09/25 01:53:08;;;;;;;8.50;6.80;;;;;;;;;;5072896;28;20446;-73
2022/09/25 01:55:37;;;;;;;10.20;6.60;;;;;;;;;;5072855;28;20477;-74
2022/09/25 01:58:09;;;;;;;8.63;6.40;;;;;;;;;;5072745;28;20935;-73
2022/09/25 02:00:38;;;;;;;9.10;6.30;;;;;;;;;;5072724;28;20450;-74
2022/09/25 02:03:10;;;;;;;8.00;6.03;;;;;;;;;;5072918;28;20446;-74
2022/09/25 02:05:41;;;;;;;9.87;6.60;;;;;;;;;;5072067;28;20491;-73
2022/09/25 02:08:13;;;;;;;9.30;6.47;;;;;;;;;;5072541;28;20450;-73
2022/09/25 02:10:43;;;;;;;7.33;5.80;;;;;;;;;;5072067;28;20470;-73
2022/09/25 02:13:12;;;;;;;6.97;4.70;;;;;;;;;;5072707;28;20552;-73
2022/09/25 02:15:41;;;;;;;10.50;6.73;;;;;;;;;;5072392;28;20453;-73
2022/09/25 02:20:59;;;;;;;9.30;5.67;;;;;;;;;;5072277;28;20499;-73
2022/09/25 02:23:29;;;;;;;7.70;5.33;;;;;;;;;;5072092;28;20524;-73
2022/09/25 02:26:00;;;;;;;8.43;5.70;;;;;;;;;;5072006;28;20462;-73
2022/09/25 02:28:27;;;;;;;8.20;5.60;;;;;;;;;;5071558;28;20493;-73
2022/09/25 02:30:57;;;;;;;8.17;5.80;;;;;;;;;;5072670;28;20600;-73
2022/09/25 02:33:26;;;;;;;9.47;6.67;;;;;;;;;;5071437;28;20801;-73
2022/09/25 02:35:53;;;;;;;8.23;5.53;;;;;;;;;;5072661;28;20438;-73
2022/09/25 02:38:20;;;;;;;7.50;5.10;;;;;;;;;;5071712;28;20456;-73
2022/09/25 02:40:52;;;;;;;7.27;4.80;;;;;;;;;;5072514;28;20532;-74
2022/09/25 02:43:24;;;;;;;9.23;5.10;;;;;;;;;;5071659;28;20449;-73
2022/09/25 02:45:57;;;;;;;6.67;5.13;;;;;;;;;;5072306;28;20442;-73
2022/09/25 02:48:28;;;;;;;7.20;5.10;;;;;;;;;;5071106;28;20457;-73
2022/09/25 02:51:04;;;;;;;6.73;4.80;;;;;;;;;;5072255;28;20523;-73
2022/09/25 02:53:34;;;;;;;7.20;5.33;;;;;;;;;;5071436;28;20465;-73
2022/09/25 02:56:04;;;;;;;5.87;4.83;;;;;;;;;;5072975;28;20831;-73
2022/09/25 02:58:34;;;;;;;7.03;6.33;;;;;;;;;;5072473;28;20441;-74
2022/09/25 03:01:03;;;;;;;7.23;5.70;;;;;;;;;;5074577;28;20446;-74
2022/09/25 03:03:31;;;;;;;5.90;4.83;;;;;;;;;;5085726;28;20909;-73
2022/09/25 03:06:00;;;;;;;5.47;4.87;;;;;;;;;;5085460;28;20498;-74
2022/09/25 03:08:37;;;;;;;9.10;5.20;;;;;;;;;;5074561;28;20445;-73
2022/09/25 03:11:05;;;;;;;8.80;5.43;;;;;;;;;;5082604;28;20466;-74
2022/09/25 03:13:33;;;;;;;9.30;6.60;;;;;;;;;;5084212;28;20541;-75
2022/09/25 03:16:02;;;;;;;8.47;5.50;;;;;;;;;;5081409;28;20480;-75
2022/09/25 03:18:30;;;;;;;7.60;4.70;;;;;;;;;;5071380;28;20441;-73
2022/09/25 03:20:57;;;;;;;8.83;6.90;;;;;;;;;;5072168;28;20873;-73
2022/09/25 03:23:25;;;;;;;8.37;5.40;;;;;;;;;;5071186;28;20464;-74
2022/09/25 03:25:54;;;;;;;6.67;5.30;;;;;;;;;;5071689;28;20812;-73
2022/09/25 03:28:21;;;;;;;9.70;5.27;;;;;;;;;;5070875;28;20594;-73
2022/09/25 03:30:59;;;;;;;5.93;5.03;;;;;;;;;;5058769;28;20489;-72
2022/09/25 03:33:27;;;;;;;5.87;4.53;;;;;;;;;;5071156;28;20445;-73
2022/09/25 03:36:00;;;;;;;11.43;6.17;;;;;;;;;;5071841;28;20503;-73
2022/09/25 03:38:29;;;;;;;10.60;6.80;;;;;;;;;;5069644;28;20454;-73
2022/09/25 03:40:56;;;;;;;9.33;6.20;;;;;;;;;;5070920;28;20462;-73
2022/09/25 03:43:23;;;;;;;8.70;5.47;;;;;;;;;;5070552;28;20450;-72
2022/09/25 03:45:50;;;;;;;9.50;5.40;;;;;;;;;;5070927;28;20449;-73
2022/09/25 03:48:17;;;;;;;7.60;5.37;;;;;;;;;;5070644;28;20446;-74
2022/09/25 03:50:45;;;;;;;7.90;5.30;;;;;;;;;;5070873;28;20489;-73
2022/09/25 03:53:12;;;;;;;9.03;6.17;;;;;;;;;;5070578;28;20502;-73
2022/09/25 03:55:41;;;;;;;9.87;6.50;;;;;;;;;;5070242;28;20449;-73
2022/09/25 03:58:09;;;;;;;8.57;5.97;;;;;;;;;;5070307;28;20441;-73
2022/09/25 04:00:36;;;;;;;6.50;5.20;;;;;;;;;;5069902;28;20457;-73
2022/09/25 04:03:03;;;;;;;7.50;5.63;;;;;;;;;;5070824;28;20438;-73
2022/09/25 04:05:30;;;;;;;7.90;5.70;;;;;;;;;;5070324;28;20449;-74
2022/09/25 04:07:59;;;;;;;9.53;6.50;;;;;;;;;;5070135;28;20454;-73
2022/09/25 04:10:26;;;;;;;5.57;4.73;;;;;;;;;;5070289;28;20477;-74
2022/09/25 04:12:56;;;;;;;10.03;6.60;;;;;;;;;;5070834;28;20454;-73
2022/09/25 04:15:23;;;;;;;7.93;5.57;;;;;;;;;;5069895;28;20450;-73
2022/09/25 04:17:50;;;;;;;8.23;6.60;;;;;;;;;;5070335;28;20456;-73
2022/09/25 04:20:18;;;;;;;11.03;6.17;;;;;;;;;;5070417;28;20453;-73
2022/09/25 04:22:45;;;;;;;6.90;5.97;;;;;;;;;;5070527;28;20461;-74
2022/09/25 04:25:13;;;;;;;7.57;5.50;;;;;;;;;;5070386;28;20454;-73
2022/09/25 04:27:40;;;;;;;8.40;6.00;;;;;;;;;;5070067;28;20482;-73
2022/09/25 04:30:09;;;;;;;11.47;7.00;;;;;;;;;;5070020;28;20449;-74
2022/09/25 04:35:21;;;;;;;9.17;5.87;;;;;;;;;;5070035;28;20441;-73
2022/09/25 04:37:49;;;;;;;8.13;5.70;;;;;;;;;;5070592;28;20457;-73
2022/09/25 04:40:16;;;;;;;9.23;6.47;;;;;;;;;;5070782;28;20446;-74
2022/09/25 04:42:43;;;;;;;7.20;5.47;;;;;;;;;;5070849;28;20921;-73
2022/09/25 04:45:12;;;;;;;7.33;5.57;;;;;;;;;;5070842;28;20445;-73
2022/09/25 04:47:39;;;;;;;8.17;5.90;;;;;;;;;;5069656;28;20449;-73
2022/09/25 04:50:07;;;;;;;7.67;5.33;;;;;;;;;;5071072;28;20456;-73
2022/09/25 04:52:34;;;;;;;9.00;6.30;;;;;;;;;;5073270;28;20524;-73
2022/09/25 04:55:03;;;;;;;9.77;5.87;;;;;;;;;;5074189;28;20816;-73
2022/09/25 04:57:30;;;;;;;7.23;5.67;;;;;;;;;;5073663;28;20461;-73
2022/09/25 04:59:57;;;;;;;8.27;5.63;;;;;;;;;;5073280;28;20452;-75
2022/09/25 05:02:28;;;;;;;9.30;5.73;;;;;;;;;;5073866;28;20450;-74
2022/09/25 05:04:55;;;;;;;8.30;5.97;;;;;;;;;;5074352;28;20760;-74
2022/09/25 05:07:22;;;;;;;8.33;5.80;;;;;;;;;;5073376;28;20457;-73
2022/09/25 05:09:49;;;;;;;11.60;6.53;;;;;;;;;;5073270;28;20441;-74
2022/09/25 05:12:16;;;;;;;8.60;5.70;;;;;;;;;;5073595;28;20489;-74
2022/09/25 05:14:43;;;;;;;11.07;6.80;;;;;;;;;;5074077;28;20855;-74
2022/09/25 05:17:11;;;;;;;8.70;5.97;;;;;;;;;;5074030;28;20461;-73
2022/09/25 05:19:39;;;;;;;7.53;6.20;;;;;;;;;;5072690;28;20741;-74
2022/09/25 05:22:06;;;;;;;8.50;6.30;;;;;;;;;;5073713;28;20476;-73
2022/09/25 05:24:34;;;;;;;11.17;6.90;;;;;;;;;;5073082;28;20449;-74
2022/09/25 05:27:02;;;;;;;9.70;6.63;;;;;;;;;;5073815;28;20588;-74
2022/09/25 05:29:30;;;;;;;9.97;7.03;;;;;;;;;;5072551;28;20940;-75
2022/09/25 05:31:57;;;;;;;8.07;6.73;;;;;;;;;;5073303;28;20491;-74
2022/09/25 05:34:24;;;;;;;9.50;6.90;;;;;;;;;;5072604;28;20449;-73
2022/09/25 05:36:53;;;;;;;7.90;6.10;;;;;;;;;;5073238;28;20514;-73
2022/09/25 05:39:20;;;;;;;6.80;5.00;;;;;;;;;;5072594;28;20445;-73
2022/09/25 05:41:47;;;;;;;7.60;5.90;;;;;;;;;;5073551;28;20445;-74
2022/09/25 05:44:14;;;;;;;5.40;4.90;;;;;;;;;;5073737;28;20861;-74
2022/09/25 05:46:41;;;;;;;6.73;5.07;;;;;;;;;;5072562;28;20952;-74
2022/09/25 05:49:08;;;;;;;9.73;5.50;;;;;;;;;;5073040;28;20456;-74
2022/09/25 05:51:35;;;;;;;6.40;5.30;;;;;;;;;;5072689;28;20539;-74
2022/09/25 05:54:04;;;;;;;7.73;5.10;;;;;;;;;;5073423;28;20450;-74
2022/09/25 05:56:31;;;;;;;8.07;6.40;;;;;;;;;;5073025;28;20454;-74
2022/09/25 05:58:58;;;;;;;7.33;5.80;;;;;;;;;;5072687;28;20457;-74
2022/09/25 06:01:26;;;;;;;7.40;5.10;;;;;;;;;;5071981;28;20450;-73
2022/09/25 06:03:53;;;;;;;7.50;5.17;;;;;;;;;;5073028;28;20945;-74
2022/09/25 06:06:20;;;;;;;8.17;6.10;;;;;;;;;;5072624;28;20450;-73
2022/09/25 06:08:47;;;;;;;7.97;5.37;;;;;;;;;;5072577;28;20455;-74
2022/09/25 06:11:16;;;;;;;9.10;5.73;;;;;;;;;;5073126;28;20483;-74
2022/09/25 06:13:45;;;;;;;8.57;5.93;;;;;;;;;;5072908;28;20441;-73
2022/09/25 06:16:18;;;;;;;8.00;5.40;;;;;;;;;;5073089;28;20456;-74
2022/09/25 06:18:45;;;;;;;8.60;5.20;;;;;;;;;;5072670;28;20460;-74
2022/09/25 06:21:12;;;;;;;10.50;6.47;;;;;;;;;;5072692;28;20449;-74
2022/09/25 06:23:39;;;;;;;8.20;4.70;;;;;;;;;;5072039;28;20445;-74
2022/09/25 06:26:09;;;;;;;9.03;5.87;;;;;;;;;;5072385;28;20458;-74
2022/09/25 06:28:37;;;;;;;7.30;5.10;;;;;;;;;;5071056;28;20512;-74
2022/09/25 06:31:05;;;;;;;7.33;5.40;;;;;;;;;;5072439;28;20485;-74
2022/09/25 06:33:32;;;;;;;8.03;5.60;;;;;;;;;;5073010;28;20456;-74
2022/09/25 06:36:00;;;;;;;6.70;4.80;;;;;;;;;;5073657;28;20446;-74
2022/09/25 06:38:27;;;;;;;11.77;6.70;;;;;;;;;;5073170;28;20454;-74
2022/09/25 06:40:54;;;;;;;9.07;6.33;;;;;;;;;;5073363;28;20450;-74
2022/09/25 06:43:21;;;;;;;7.60;5.17;;;;;;;;;;5073515;28;20538;-74
2022/09/25 06:45:50;;;;;;;8.70;6.07;;;;;;;;;;5073699;28;20513;-74
2022/09/25 06:48:17;;;;;;;8.80;5.43;;;;;;;;;;5073149;28;20444;-74
2022/09/25 06:50:44;;;;;;;9.17;5.70;;;;;;;;;;5073164;28;20457;-75
2022/09/25 06:53:12;;;;;;;9.77;5.97;;;;;;;;;;5073037;28;20442;-74
2022/09/25 06:55:39;;;;;;;8.50;5.53;;;;;;;;;;5073048;28;20894;-74
2022/09/25 06:58:07;;;;;;;9.97;6.67;;;;;;;;;;5072707;28;20960;-74
2022/09/25 07:00:34;;;;;;;8.83;6.23;;;;;;;;;;5073412;28;20519;-73
2022/09/25 07:05:48;;;;;;;11.47;6.93;;;;;;;;;;5076398;28;20432;-74
2022/09/25 07:08:16;;;;;;;10.70;6.70;;;;;;;;;;5083598;28;20453;-74
2022/09/25 07:10:48;;;;;;;9.23;5.47;;;;;;;;;;5083549;28;20450;-75
2022/09/25 07:13:15;;;;;;;7.87;5.57;;;;;;;;;;5075470;28;20510;-74
2022/09/25 07:15:42;;;;;;;7.60;5.70;;;;;;;;;;5085075;28;20464;-75
2022/09/25 07:18:11;;;;;;;11.33;5.07;;;;;;;;;;5089314;28;20544;-74
2022/09/25 07:20:38;;;;;;;6.77;4.70;;;;;;;;;;5089184;28;20926;-74
2022/09/25 07:23:05;;;;;;;6.30;4.90;;;;;;;;;;5085960;28;20446;-74
2022/09/25 07:25:32;;;;;;;8.50;5.10;;;;;;;;;;5083310;28;20557;-74
2022/09/25 07:27:59;;;;;;;7.10;4.70;;;;;;;;;;5079153;28;21036;-73
2022/09/25 07:30:28;;;;;;;7.23;5.30;;;;;;;;;;5074711;28;20473;-73
2022/09/25 07:32:55;;;;;;;8.20;4.90;;;;;;;;;;5072951;28;20500;-74
2022/09/25 07:35:26;;;;;;;9.13;5.97;;;;;;;;;;5072941;28;20453;-74
2022/09/25 07:37:53;;;;;;;10.10;5.70;;;;;;;;;;5073016;28;20445;-74
2022/09/25 07:40:20;;;;;;;5.77;4.70;;;;;;;;;;5073977;28;20452;-74
2022/09/25 07:42:47;;;;;;;6.57;4.77;;;;;;;;;;5073945;28;20925;-74
2022/09/25 07:45:14;;;;;;;6.33;4.97;;;;;;;;;;5074065;28;20454;-74
2022/09/25 07:47:41;;;;;;;7.50;4.50;;;;;;;;;;5072826;28;20451;-74
2022/09/25 07:50:09;;;;;;;6.00;4.63;;;;;;;;;;5071842;28;20774;-74
2022/09/25 07:52:37;;;;;;;5.23;4.03;;;;;;;;;;5071994;28;20493;-73
2022/09/25 07:55:05;;;;;;;7.10;4.50;;;;;;;;;;5072129;28;20450;-74
2022/09/25 07:57:33;;;;;;;7.67;5.23;;;;;;;;;;5071745;28;20508;-74
2022/09/25 08:00:00;;;;;;;6.77;4.77;;;;;;;;;;5072256;28;20456;-74
2022/09/25 08:02:27;;;;;;;6.20;4.73;;;;;;;;;;5071845;28;20457;-73
2022/09/25 08:04:54;;;;;;;6.30;4.47;;;;;;;;;;5071896;28;20454;-74
2022/09/25 08:07:21;;;;;;;6.23;4.27;;;;;;;;;;5071797;28;20955;-74
2022/09/25 08:09:49;;;;;;;8.93;5.40;;;;;;;;;;5072072;28;20753;-74
2022/09/25 08:12:17;;;;;;;5.17;4.13;;;;;;;;;;5072038;28;20484;-74
2022/09/25 08:14:44;;;;;;;5.77;4.67;;;;;;;;;;5072153;28;20460;-74
2022/09/25 08:17:12;;;;;;;6.07;4.40;;;;;;;;;;5071857;28;20442;-74
2022/09/25 08:19:39;;;;;;;5.03;4.07;;;;;;;;;;5071154;28;20457;-74
2022/09/25 08:22:06;;;;;;;6.73;4.40;;;;;;;;;;5071777;28;20477;-73
2022/09/25 08:24:33;;;;;;;6.80;4.10;;;;;;;;;;5072341;28;20449;-74
2022/09/25 08:27:02;;;;;;;5.83;4.23;;;;;;;;;;5075666;28;20832;-74
2022/09/25 08:29:29;;;;;;;7.10;4.50;;;;;;;;;;5075193;28;20449;-74
2022/09/25 08:31:56;;;;;;;6.30;4.70;;;;;;;;;;5075598;28;20847;-73
2022/09/25 08:34:24;;;;;;;6.23;4.40;;;;;;;;;;5075405;28;20450;-74
2022/09/25 08:36:51;;;;;;;9.43;4.07;;;;;;;;;;5075241;28;20464;-73
2022/09/25 08:39:18;;;;;;;5.03;4.50;;;;;;;;;;5075120;28;20453;-73
2022/09/25 08:41:47;;;;;;;8.23;4.37;;;;;;;;;;5075454;28;20449;-73
2022/09/25 08:44:21;;;;;;;5.50;4.43;;;;;;;;;;5075538;28;20445;-74
2022/09/25 08:49:39;;;;;;;6.47;4.20;;;;;;;;;;5074744;28;20507;-75
2022/09/25 08:52:07;;;;;;;7.07;4.63;;;;;;;;;;5074876;28;21000;-75
2022/09/25 08:54:35;;;;;;;6.20;4.27;;;;;;;;;;5070995;28;20453;-74
2022/09/25 08:57:07;;;;;;;5.40;3.73;;;;;;;;;;5075227;28;20528;-74
2022/09/25 09:10:51;;;;;;;4.43;3.60;;;;;;;;;;4992156;23;20493;-73
2022/09/25 09:13:19;;;;;;;6.97;4.80;;;;;;;;;;4995716;28;20480;-73
2022/09/25 09:15:50;;;;;;;3.87;3.40;;;;;;;;;;4993833;28;20467;-72
2022/09/25 09:18:19;;;;;;;4.43;4.03;;;;;;;;;;4994222;28;20815;-73
2022/09/25 09:20:50;;;;;;;6.10;3.80;;;;;;;;;;4992877;28;20461;-73
2022/09/25 09:23:19;;;;;;;4.67;3.50;;;;;;;;;;4994193;28;20532;-73
2022/09/25 09:25:51;;;;;;;4.57;3.70;;;;;;;;;;4993223;28;20457;-74
2022/09/25 09:28:32;;;;;;;4.20;2.70;;;;;;;;;;4981365;28;20770;-73
2022/09/25 09:31:03;;;;;;;5.37;3.30;;;;;;;;;;4992797;28;20445;-73
2022/09/25 09:33:40;;;;;;;4.63;3.13;;;;;;;;;;4993760;28;20555;-73
2022/09/25 09:36:11;;;;;;;3.63;3.20;;;;;;;;;;4992543;28;20456;-73
2022/09/25 09:38:44;;;;;;;5.73;3.20;;;;;;;;;;4993594;28;20449;-73
2022/09/25 09:41:17;;;;;;;3.00;2.63;;;;;;;;;;4993151;28;20822;-73
2022/09/25 09:43:57;;;;;;;5.13;2.90;;;;;;;;;;4993393;28;20445;-71
2022/09/25 09:46:28;;;;;;;5.40;3.40;;;;;;;;;;4982547;28;20452;-73
2022/09/25 09:49:02;;;;;;;5.33;3.57;;;;;;;;;;4992709;28;20445;-72
2022/09/25 09:51:33;;;;;;;3.77;2.70;;;;;;;;;;4993648;28;20457;-73
2022/09/25 09:54:02;;;;;;;3.47;3.17;;;;;;;;;;4992907;28;20453;-72
2022/09/25 09:56:31;;;;;;;3.20;2.90;;;;;;;;;;4993752;28;20449;-73
2022/09/25 09:58:59;;;;;;;4.30;3.23;;;;;;;;;;4992364;28;20460;-73
2022/09/25 10:01:28;;;;;;;4.27;3.87;;;;;;;;;;4993643;28;20455;-73
2022/09/25 10:04:06;;;;;;;3.40;3.10;;;;;;;;;;4992738;28;20457;-72
2022/09/25 10:06:36;;;;;;;4.67;3.50;;;;;;;;;;4993465;28;20444;-72
2022/09/25 10:09:03;;;;;;;4.17;3.33;;;;;;;;;;4991810;28;20453;-75
2022/09/25 10:11:33;;;;;;;6.53;4.40;;;;;;;;;;4993537;28;20453;-72
2022/09/25 10:14:02;;;;;;;4.93;3.20;;;;;;;;;;4992350;28;20488;-72
2022/09/25 10:16:30;;;;;;;6.43;3.60;;;;;;;;;;4993225;28;20445;-75
2022/09/25 10:19:01;;;;;;;4.13;3.40;;;;;;;;;;4991906;28;20471;-73
2022/09/25 10:21:30;;;;;;;4.07;3.00;;;;;;;;;;4992956;28;20940;-73
2022/09/25 10:23:58;;;;;;;3.43;3.10;;;;;;;;;;4992370;28;20449;-73
2022/09/25 10:26:27;;;;;;;4.30;3.90;;;;;;;;;;4992908;28;20537;-73
2022/09/25 10:28:56;;;;;;;4.03;3.27;;;;;;;;;;4991723;28;20454;-75
2022/09/25 10:31:24;;;;;;;5.57;3.40;;;;;;;;;;4992887;28;20499;-74
2022/09/25 10:34:01;;;;;;;5.10;3.63;;;;;;;;;;4992169;28;20484;-75
2022/09/25 10:36:33;;;;;;;4.57;3.63;;;;;;;;;;4992511;28;20452;-75
2022/09/25 10:39:00;;;;;;;4.83;4.10;;;;;;;;;;4991799;28;20449;-75
2022/09/25 10:41:27;;;;;;;5.53;3.77;;;;;;;;;;4992319;28;20468;-75
2022/09/25 10:43:58;;;;;;;4.67;3.33;;;;;;;;;;4991776;28;20457;-75
2022/09/25 10:52:05;;;;;;;5.90;4.07;;;;;;;;;;4991957;28;21085;-74
2022/09/25 10:54:33;;;;;;;5.43;4.30;;;;;;;;;;4992064;28;20453;-74
2022/09/25 10:57:00;;;;;;;6.33;4.83;;;;;;;;;;4991768;28;20449;-74
2022/09/25 10:59:29;;;;;;;5.80;4.67;;;;;;;;;;4992107;28;20449;-74
2022/09/25 11:01:57;;;;;;;8.23;5.30;;;;;;;;;;4991445;28;20927;-74
2022/09/25 11:04:26;;;;;;;4.83;4.30;;;;;;;;;;4991976;28;20455;-74
2022/09/25 11:06:57;;;;;;;7.60;5.37;;;;;;;;;;4991561;28;20480;-74
2022/09/25 11:09:25;;;;;;;5.93;4.67;;;;;;;;;;4979012;28;20527;-74
2022/09/25 11:11:53;;;;;;;6.30;5.10;;;;;;;;;;4991647;28;20446;-74
2022/09/25 11:14:22;;;;;;;4.73;4.23;;;;;;;;;;4991776;28;20507;-74
2022/09/25 11:16:52;;;;;;;6.73;5.37;;;;;;;;;;4991152;28;20520;-73
2022/09/25 11:19:23;;;;;;;7.27;5.60;;;;;;;;;;4991544;28;20453;-74
2022/09/25 11:21:55;;;;;;;7.60;4.47;;;;;;;;;;4991288;28;20453;-74
2022/09/25 11:24:25;;;;;;;7.30;5.50;;;;;;;;;;4991488;28;20492;-73
2022/09/25 11:26:58;;;;;;;6.00;5.20;;;;;;;;;;4991123;28;20453;-73
2022/09/25 11:29:32;;;;;;;5.70;4.60;;;;;;;;;;4991131;28;20453;-74
2022/09/25 11:32:04;;;;;;;7.73;5.57;;;;;;;;;;4990881;28;20473;-75
2022/09/25 11:34:37;;;;;;;6.10;5.10;;;;;;;;;;4991665;28;20449;-74
2022/09/25 11:37:10;;;;;;;8.00;5.73;;;;;;;;;;4991041;28;20515;-75
2022/09/25 11:42:31;;;;;;;9.43;5.77;;;;;;;;;;4994124;28;20575;-75
2022/09/25 11:45:02;;;;;;;12.30;7.10;;;;;;;;;;4990982;28;20496;-75
2022/09/25 11:47:33;;;;;;;8.67;5.50;;;;;;;;;;4994418;28;20449;-74
2022/09/25 11:50:01;;;;;;;9.53;6.60;;;;;;;;;;4995014;28;20851;-75
2022/09/25 11:52:36;;;;;;;8.87;6.30;;;;;;;;;;4995215;28;20489;-75
2022/09/25 11:55:17;;;;;;;6.97;6.27;;;;;;;;;;4990707;28;20531;-74
2022/09/25 11:57:49;;;;;;;7.63;6.23;;;;;;;;;;4992052;28;20461;-73
2022/09/25 12:00:19;;;;;;;12.53;7.60;;;;;;;;;;4990707;28;20445;-75
2022/09/25 12:02:54;;;;;;;9.03;5.90;;;;;;;;;;4991402;28;20437;-72
2022/09/25 12:05:37;;;;;;;8.87;5.63;;;;;;;;;;4991830;28;20463;-74
2022/09/25 12:08:14;;;;;;;9.60;6.57;;;;;;;;;;4990499;28;20463;-74
2022/09/25 12:10:46;;;;;;;11.27;6.83;;;;;;;;;;4991267;28;20477;-73
2022/09/25 12:13:19;;;;;;;9.83;6.80;;;;;;;;;;4991046;28;20489;-74
2022/09/25 12:16:00;;;;;;;10.47;7.80;;;;;;;;;;4991162;28;20445;-73
2022/09/25 12:18:33;;;;;;;10.57;7.47;;;;;;;;;;4990875;28;21332;-74
2022/09/25 12:21:03;;;;;;;10.63;7.43;;;;;;;;;;4990380;28;20449;-74
2022/09/25 12:23:31;;;;;;;10.03;6.67;;;;;;;;;;4979176;28;20571;-73
2022/09/25 12:26:07;;;;;;;9.50;7.40;;;;;;;;;;4989901;28;20452;-73
2022/09/25 12:28:40;;;;;;;14.20;7.30;;;;;;;;;;4990939;28;20762;-74
2022/09/25 12:31:22;;;;;;;10.40;6.50;;;;;;;;;;4990728;28;20441;-74
2022/09/25 12:33:53;;;;;;;10.97;8.00;;;;;;;;;;4990603;28;20485;-73
2022/09/25 12:36:23;;;;;;;9.17;7.00;;;;;;;;;;4990812;28;20781;-74
2022/09/25 12:38:54;;;;;;;10.40;6.77;;;;;;;;;;4990119;28;20500;-72
2022/09/25 12:41:27;;;;;;;10.53;7.00;;;;;;;;;;4990955;28;20867;-73
2022/09/25 12:43:59;;;;;;;9.47;6.90;;;;;;;;;;4990149;28;20453;-73
2022/09/25 12:46:29;;;;;;;8.40;6.40;;;;;;;;;;4991101;28;20449;-75
2022/09/25 12:49:02;;;;;;;9.40;6.20;;;;;;;;;;4989950;28;20504;-72
2022/09/25 12:51:33;;;;;;;11.53;7.00;;;;;;;;;;4991169;28;20450;-75
2022/09/25 12:54:02;;;;;;;7.80;6.40;;;;;;;;;;4990328;28;21042;-75
2022/09/25 12:56:32;;;;;;;9.60;6.23;;;;;;;;;;4990966;28;20451;-75
2022/09/25 12:59:11;;;;;;;12.00;6.30;;;;;;;;;;4989891;28;20452;-75
2022/09/25 13:01:44;;;;;;;7.20;5.80;;;;;;;;;;4990389;28;20453;-75
2022/09/25 13:04:21;;;;;;;8.63;5.50;;;;;;;;;;4990346;28;20536;-76
2022/09/25 13:06:51;;;;;;;7.20;5.77;;;;;;;;;;4990493;28;20444;-74
2022/09/25 13:09:28;;;;;;;8.30;5.67;;;14.40;99.90;;;;;;4990697;28;20632;-75
2022/09/25 13:12:00;;;;;;;6.10;5.23;;;17.50;1.00;;;;;;4992668;28;20437;-75
2022/09/25 13:14:34;;;;;;;7.27;4.93;;;17.30;1.00;;;;;;4994541;28;20991;-75
2022/09/25 13:17:01;;;;;;;8.33;6.07;;;17.20;1.00;;;;;;4981667;28;20452;-75
2022/09/25 13:19:32;;;;;;;8.10;5.70;;;17.00;35.10;;;;;;4993781;28;20449;-75
2022/09/25 13:22:05;;;;;;;8.20;6.40;;;16.90;1.00;;;;;;4993924;28;20916;-75
2022/09/25 13:24:39;;;;;;;6.87;5.30;;;17.10;1.00;;;;;;4993936;28;20453;-75
2022/09/25 13:27:14;;;;;;;10.70;5.77;;;17.10;1.00;;;;;;4993042;28;20943;-75
2022/09/25 13:29:41;;;;;;;8.57;5.40;;;17.00;1.00;;;;;;4993999;28;20455;-75
2022/09/25 13:32:15;;;;;;;5.97;5.27;;;16.70;99.90;;;;;;4993075;28;20444;-75
2022/09/25 13:34:44;;;;;;;6.83;4.83;;;16.70;1.00;;;;;;4993998;28;20476;-75
2022/09/25 13:37:13;;;;;;;6.70;5.00;;;16.90;1.00;;;;;;4993332;28;20454;-75
2022/09/25 13:42:42;;;;;;;7.30;5.40;;;17.20;1.00;;;;;;4933574;29;21015;-75
2022/09/25 13:45:33;;;;;;;6.23;5.40;;;17.10;99.90;;;;;;4932772;29;20523;-75
2022/09/25 13:48:04;;;;;;;7.43;6.00;;;17.10;1.00;;;;;;4969477;28;20528;-74
2022/09/25 13:50:38;;;;;;;5.60;5.00;;;17.20;99.90;;;;;;4993806;28;20529;-74
2022/09/25 13:53:20;;;;;;;5.97;4.60;;;17.30;1.00;;;;;;4993084;28;20667;-74
2022/09/25 13:56:14;;;;;;;7.63;5.30;;;17.40;99.90;;;;;;4993343;28;20807;-72
2022/09/25 13:59:17;;;;;;;6.50;5.03;;;17.30;99.90;;;;;;4992809;28;20438;-73
2022/09/25 14:01:47;;;;;;;6.23;5.07;;;16.90;1.00;;;;;;4993293;28;20535;-73
2022/09/25 14:04:23;;;;;;;7.00;4.90;;;17.10;1.00;;;;;;4993644;28;20457;-73
2022/09/25 14:06:56;;;;;;;7.00;5.27;;;17.40;99.90;;;;;;4992894;28;20867;-72
2022/09/25 14:09:25;;;;;;;5.80;4.70;;;17.40;1.00;;;;;;4993033;28;20465;-73
2022/09/25 14:12:05;;;;;;;5.67;4.90;;;17.30;1.00;;;;;;4992209;28;20513;-73
2022/09/25 14:14:36;;;;;;;5.83;5.20;;;17.30;1.00;;;;;;4993329;28;20830;-73
2022/09/25 14:17:05;;;;;;;6.80;5.60;;;17.50;99.90;;;;;;4992696;28;20453;-73
2022/09/25 14:19:36;;;;;;;6.27;4.63;;;17.70;99.90;;;;;;4993154;28;20880;-73
2022/09/25 14:22:05;;;;;;;7.10;5.80;;;17.80;99.90;;;;;;4992408;28;20455;-73
2022/09/25 14:24:35;;;;;;;7.33;5.10;;;17.90;99.90;;;;;;4993220;28;20790;-75
2022/09/25 14:27:02;;;;;;;5.87;4.83;;;17.30;1.00;;;;;;4992213;28;20532;-73
2022/09/25 14:29:37;;;;;;;6.23;4.50;;;17.50;1.00;;;;;;4992774;28;20463;-75
2022/09/25 14:32:15;;;;;;;9.23;5.13;;;17.40;99.90;;;;;;4992239;28;20453;-73
2022/09/25 14:34:54;;;;;;;4.80;4.30;;;17.40;99.90;;;;;;4992794;28;20473;-73
2022/09/25 14:37:33;;;;;;;5.70;4.70;;;;;;;;;;4993187;28;20445;-73
2022/09/25 14:40:03;;;;;;;7.90;4.40;;;;;;;;;;4991978;28;20461;-73
2022/09/25 14:42:44;;;;;;;5.60;4.63;;;;;;;;;;4992625;28;20454;-73
2022/09/25 14:45:21;;;;;;;5.93;4.13;;;;;;;;;;4992639;28;20449;-73
2022/09/25 14:47:49;;;;;;;4.60;3.83;;;;;;;;;;4992868;28;20448;-72
2022/09/25 14:50:19;;;;;;;4.60;3.90;;;;;;;;;;4992696;28;20445;-73
2022/09/25 14:52:51;;;;;;;5.50;3.80;;;;;;;;;;4992931;28;20512;-73
2022/09/25 14:55:19;;;;;;;4.73;3.63;;;;;;;;;;4992679;28;20878;-73
2022/09/25 14:57:48;;;;;;;5.90;3.77;;;;;;;;;;4992703;28;20452;-73
2022/09/25 15:00:17;;;;;;;3.90;3.43;;;;;;;;;;4992231;28;20458;-73
2022/09/25 15:02:45;;;;;;;5.20;4.00;;;;;;;;;;4992487;28;20939;-74
2022/09/25 15:05:19;;;;;;;4.40;3.40;;;;;;;;;;4992101;28;20837;-74
2022/09/25 15:07:48;;;;;;;4.33;3.73;;;;;;;;;;4992427;28;20599;-74
2022/09/25 15:10:26;;;;;;;3.30;3.00;;;;;;;;;;4992095;28;20959;-74
2022/09/25 15:12:54;;;;;;;5.80;4.10;;;;;;;;;;4991927;28;20951;-73
2022/09/25 15:15:21;;;;;;;3.93;3.53;;;;;;;;;;4992648;28;20489;-73
2022/09/25 15:17:49;;;;;;;3.87;3.43;;;;;;;;;;4991877;28;20461;-72
2022/09/25 15:20:19;;;;;;;5.17;3.57;;;;;;;;;;4992300;28;20449;-73